sensor_id;sensor_type;location;lat;lon;timestamp;temperature;humidity
4520;DHT22;2272;49.226;8.108;2023-05-07T00:00:19;14.40;99.90
4520;DHT22;2272;49.226;8.108;2023-05-07T00:02:46;14.30;99.90
4520;DHT22;2272;49.226;8.108;2023-05-07T00:05:13;14.30;99.90
4520;DHT22;2272;49.226;8.108;2023-05-07T00:07:39;14.20;99.90
4520;DHT22;2272;49.226;8.108;2023-05-07T00:10:07;14.20;99.90
4520;DHT22;2272;49.226;8.108;2023-05-07T00:12:35;14.20;99.90
4520;DHT22;2272;49.226;8.108;2023-05-07T00:15:03;14.10;99.90
4520;DHT22;2272;49.226;8.108;2023-05-07T00:17:33;14.10;99.90
4520;DHT22;2272;49.226;8.108;2023-05-07T00:20:00;14.10;99.90
4520;DHT22;2272;49.226;8.108;2023-05-07T00:22:41;14.00;99.90
4520;DHT22;2272;49.226;8.108;2023-05-07T00:25:09;14.00;99.90
4520;DHT22;2272;49.226;8.108;2023-05-07T00:31:14;13.90;99.90
4520;DHT22;2272;49.226;8.108;2023-05-07T00:33:42;13.80;99.90
4520;DHT22;2272;49.226;8.108;2023-05-07T00:36:09;13.90;99.90
4520;DHT22;2272;49.226;8.108;2023-05-07T00:38:36;13.80;99.90
4520;DHT22;2272;49.226;8.108;2023-05-07T00:41:03;13.80;99.90
4520;DHT22;2272;49.226;8.108;2023-05-07T00:43:30;13.80;99.90
4520;DHT22;2272;49.226;8.108;2023-05-07T00:45:57;13.80;99.90
4520;DHT22;2272;49.226;8.108;2023-05-07T00:48:25;13.70;99.90
4520;DHT22;2272;49.226;8.108;2023-05-07T01:01:36;13.50;99.90
4520;DHT22;2272;49.226;8.108;2023-05-07T01:04:03;13.50;99.90
4520;DHT22;2272;49.226;8.108;2023-05-07T01:06:30;13.50;99.90
4520;DHT22;2272;49.226;8.108;2023-05-07T01:08:58;13.50;99.90
4520;DHT22;2272;49.226;8.108;2023-05-07T01:11:26;13.50;99.90
4520;DHT22;2272;49.226;8.108;2023-05-07T01:13:53;13.50;99.90
4520;DHT22;2272;49.226;8.108;2023-05-07T01:16:20;13.40;99.90
4520;DHT22;2272;49.226;8.108;2023-05-07T01:18:52;13.40;99.90
4520;DHT22;2272;49.226;8.108;2023-05-07T01:21:45;13.40;99.90
4520;DHT22;2272;49.226;8.108;2023-05-07T01:24:15;13.50;99.90
4520;DHT22;2272;49.226;8.108;2023-05-07T01:26:42;13.40;99.90
4520;DHT22;2272;49.226;8.108;2023-05-07T01:29:10;13.50;99.90
4520;DHT22;2272;49.226;8.108;2023-05-07T01:31:37;13.40;99.90
4520;DHT22;2272;49.226;8.108;2023-05-07T01:34:06;13.40;99.90
4520;DHT22;2272;49.226;8.108;2023-05-07T01:36:35;13.40;99.90
4520;DHT22;2272;49.226;8.108;2023-05-07T01:39:04;13.30;99.90
4520;DHT22;2272;49.226;8.108;2023-05-07T01:41:34;13.30;99.90
4520;DHT22;2272;49.226;8.108;2023-05-07T01:44:01;13.30;99.90
4520;DHT22;2272;49.226;8.108;2023-05-07T01:46:36;13.30;99.90
4520;DHT22;2272;49.226;8.108;2023-05-07T01:49:03;13.30;99.90
4520;DHT22;2272;49.226;8.108;2023-05-07T01:51:31;13.20;99.90
4520;DHT22;2272;49.226;8.108;2023-05-07T01:53:59;13.30;99.90
4520;DHT22;2272;49.226;8.108;2023-05-07T01:56:26;13.30;99.90
4520;DHT22;2272;49.226;8.108;2023-05-07T01:58:56;13.30;99.90
4520;DHT22;2272;49.226;8.108;2023-05-07T02:01:24;13.20;99.90
4520;DHT22;2272;49.226;8.108;2023-05-07T02:04:04;13.20;99.90
4520;DHT22;2272;49.226;8.108;2023-05-07T02:06:31;13.20;99.90
4520;DHT22;2272;49.226;8.108;2023-05-07T02:08:58;13.10;99.90
4520;DHT22;2272;49.226;8.108;2023-05-07T02:11:25;13.10;99.90
4520;DHT22;2272;49.226;8.108;2023-05-07T02:13:52;13.10;99.90
4520;DHT22;2272;49.226;8.108;2023-05-07T02:16:47;13.10;99.90
4520;DHT22;2272;49.226;8.108;2023-05-07T02:19:14;13.00;99.90
4520;DHT22;2272;49.226;8.108;2023-05-07T02:21:41;13.10;99.90
4520;DHT22;2272;49.226;8.108;2023-05-07T02:27:29;13.10;99.90
4520;DHT22;2272;49.226;8.108;2023-05-07T02:29:58;13.00;99.90
4520;DHT22;2272;49.226;8.108;2023-05-07T02:36:26;13.00;99.90
4520;DHT22;2272;49.226;8.108;2023-05-07T02:38:54;13.00;99.90
4520;DHT22;2272;49.226;8.108;2023-05-07T02:41:21;12.90;99.90
4520;DHT22;2272;49.226;8.108;2023-05-07T02:43:47;12.90;99.90
4520;DHT22;2272;49.226;8.108;2023-05-07T02:46:14;12.90;99.90
4520;DHT22;2272;49.226;8.108;2023-05-07T02:48:42;12.90;99.90
4520;DHT22;2272;49.226;8.108;2023-05-07T02:51:09;12.90;99.90
4520;DHT22;2272;49.226;8.108;2023-05-07T02:53:52;12.80;99.90
4520;DHT22;2272;49.226;8.108;2023-05-07T02:56:20;12.80;99.90
4520;DHT22;2272;49.226;8.108;2023-05-07T02:58:49;12.80;99.90
4520;DHT22;2272;49.226;8.108;2023-05-07T03:01:17;12.80;99.90
4520;DHT22;2272;49.226;8.108;2023-05-07T03:03:44;12.80;99.90
4520;DHT22;2272;49.226;8.108;2023-05-07T03:06:11;12.90;99.90
4520;DHT22;2272;49.226;8.108;2023-05-07T03:08:38;13.00;99.90
4520;DHT22;2272;49.226;8.108;2023-05-07T03:14:20;13.00;99.90
4520;DHT22;2272;49.226;8.108;2023-05-07T03:16:49;13.00;99.90
4520;DHT22;2272;49.226;8.108;2023-05-07T03:19:16;13.00;99.90
4520;DHT22;2272;49.226;8.108;2023-05-07T03:21:57;12.90;99.90
4520;DHT22;2272;49.226;8.108;2023-05-07T03:24:25;12.90;99.90
4520;DHT22;2272;49.226;8.108;2023-05-07T03:26:52;13.00;99.90
4520;DHT22;2272;49.226;8.108;2023-05-07T03:29:27;12.90;99.90
4520;DHT22;2272;49.226;8.108;2023-05-07T03:31:57;12.80;99.90
4520;DHT22;2272;49.226;8.108;2023-05-07T03:34:24;12.70;99.90
4520;DHT22;2272;49.226;8.108;2023-05-07T03:36:52;12.60;99.90
4520;DHT22;2272;49.226;8.108;2023-05-07T03:39:33;12.50;99.90
4520;DHT22;2272;49.226;8.108;2023-05-07T03:42:00;12.50;99.90
4520;DHT22;2272;49.226;8.108;2023-05-07T03:44:31;12.50;99.90
4520;DHT22;2272;49.226;8.108;2023-05-07T03:46:59;12.40;99.90
4520;DHT22;2272;49.226;8.108;2023-05-07T03:49:26;12.40;99.90
4520;DHT22;2272;49.226;8.108;2023-05-07T03:51:53;12.40;99.90
4520;DHT22;2272;49.226;8.108;2023-05-07T03:54:21;12.40;99.90
4520;DHT22;2272;49.226;8.108;2023-05-07T03:56:48;12.40;99.90
4520;DHT22;2272;49.226;8.108;2023-05-07T03:59:15;12.50;99.90
4520;DHT22;2272;49.226;8.108;2023-05-07T04:01:43;12.50;99.90
4520;DHT22;2272;49.226;8.108;2023-05-07T04:04:10;12.50;99.90
4520;DHT22;2272;49.226;8.108;2023-05-07T04:06:41;12.50;99.90
4520;DHT22;2272;49.226;8.108;2023-05-07T04:09:12;12.50;99.90
4520;DHT22;2272;49.226;8.108;2023-05-07T04:11:39;12.50;99.90
4520;DHT22;2272;49.226;8.108;2023-05-07T04:14:15;12.50;99.90
4520;DHT22;2272;49.226;8.108;2023-05-07T04:16:44;12.50;99.90
4520;DHT22;2272;49.226;8.108;2023-05-07T04:19:11;12.60;99.90
4520;DHT22;2272;49.226;8.108;2023-05-07T04:21:56;12.60;99.90
4520;DHT22;2272;49.226;8.108;2023-05-07T04:24:37;12.80;99.90
4520;DHT22;2272;49.226;8.108;2023-05-07T04:27:04;12.90;99.90
4520;DHT22;2272;49.226;8.108;2023-05-07T04:29:32;13.00;99.90
4520;DHT22;2272;49.226;8.108;2023-05-07T04:32:14;13.00;99.90
4520;DHT22;2272;49.226;8.108;2023-05-07T04:34:43;13.00;99.90
4520;DHT22;2272;49.226;8.108;2023-05-07T04:37:13;13.00;99.90
4520;DHT22;2272;49.226;8.108;2023-05-07T04:39:40;13.00;99.90
4520;DHT22;2272;49.226;8.108;2023-05-07T04:42:08;13.10;99.90
4520;DHT22;2272;49.226;8.108;2023-05-07T04:44:53;13.20;99.90
4520;DHT22;2272;49.226;8.108;2023-05-07T04:47:35;13.30;99.90
4520;DHT22;2272;49.226;8.108;2023-05-07T04:50:02;13.50;99.90
4520;DHT22;2272;49.226;8.108;2023-05-07T04:52:29;13.60;99.90
4520;DHT22;2272;49.226;8.108;2023-05-07T04:54:59;13.60;99.90
4520;DHT22;2272;49.226;8.108;2023-05-07T04:57:26;13.70;99.90
4520;DHT22;2272;49.226;8.108;2023-05-07T04:59:53;13.70;99.90
4520;DHT22;2272;49.226;8.108;2023-05-07T05:02:20;13.80;99.90
4520;DHT22;2272;49.226;8.108;2023-05-07T05:04:49;13.90;99.90
4520;DHT22;2272;49.226;8.108;2023-05-07T05:07:17;13.90;99.90
4520;DHT22;2272;49.226;8.108;2023-05-07T05:09:45;13.80;99.90
4520;DHT22;2272;49.226;8.108;2023-05-07T05:12:12;13.80;99.90
4520;DHT22;2272;49.226;8.108;2023-05-07T05:14:43;13.80;99.90
4520;DHT22;2272;49.226;8.108;2023-05-07T05:17:10;13.90;99.90
4520;DHT22;2272;49.226;8.108;2023-05-07T05:19:36;14.00;99.90
4520;DHT22;2272;49.226;8.108;2023-05-07T05:22:14;14.00;99.90
4520;DHT22;2272;49.226;8.108;2023-05-07T05:24:42;14.10;99.90
4520;DHT22;2272;49.226;8.108;2023-05-07T05:27:10;14.20;99.90
4520;DHT22;2272;49.226;8.108;2023-05-07T05:30:15;14.50;99.90
4520;DHT22;2272;49.226;8.108;2023-05-07T05:33:04;14.70;99.90
4520;DHT22;2272;49.226;8.108;2023-05-07T05:35:34;14.90;99.90
4520;DHT22;2272;49.226;8.108;2023-05-07T05:38:17;15.00;99.90
4520;DHT22;2272;49.226;8.108;2023-05-07T05:40:45;15.20;99.90
4520;DHT22;2272;49.226;8.108;2023-05-07T05:43:13;15.30;99.90
4520;DHT22;2272;49.226;8.108;2023-05-07T05:45:40;15.40;99.90
4520;DHT22;2272;49.226;8.108;2023-05-07T05:48:06;15.50;99.90
4520;DHT22;2272;49.226;8.108;2023-05-07T05:50:34;15.60;99.90
4520;DHT22;2272;49.226;8.108;2023-05-07T08:10:57;21.90;99.90
4520;DHT22;2272;49.226;8.108;2023-05-07T08:13:23;22.10;99.90
4520;DHT22;2272;49.226;8.108;2023-05-07T08:15:50;22.20;99.90
4520;DHT22;2272;49.226;8.108;2023-05-07T08:18:18;22.30;99.90
4520;DHT22;2272;49.226;8.108;2023-05-07T08:20:44;22.40;99.90
4520;DHT22;2272;49.226;8.108;2023-05-07T08:23:12;22.70;99.90
4520;DHT22;2272;49.226;8.108;2023-05-07T08:25:58;22.90;99.90
4520;DHT22;2272;49.226;8.108;2023-05-07T08:28:30;23.10;99.90
4520;DHT22;2272;49.226;8.108;2023-05-07T08:30:58;23.20;99.90
4520;DHT22;2272;49.226;8.108;2023-05-07T08:33:26;23.20;99.90
4520;DHT22;2272;49.226;8.108;2023-05-07T08:35:53;22.80;99.90
4520;DHT22;2272;49.226;8.108;2023-05-07T08:38:20;22.70;99.90
4520;DHT22;2272;49.226;8.108;2023-05-07T08:40:47;23.20;99.90
4520;DHT22;2272;49.226;8.108;2023-05-07T08:43:17;23.90;99.90
4520;DHT22;2272;49.226;8.108;2023-05-07T08:45:45;24.30;99.90
4520;DHT22;2272;49.226;8.108;2023-05-07T08:48:16;24.40;99.90
4520;DHT22;2272;49.226;8.108;2023-05-07T08:50:43;24.20;99.90
4520;DHT22;2272;49.226;8.108;2023-05-07T08:53:10;23.70;99.90
4520;DHT22;2272;49.226;8.108;2023-05-07T08:55:37;23.40;99.90
4520;DHT22;2272;49.226;8.108;2023-05-07T08:58:04;23.30;99.90
4520;DHT22;2272;49.226;8.108;2023-05-07T09:00:36;23.40;99.90
4520;DHT22;2272;49.226;8.108;2023-05-07T09:03:05;23.50;99.90
4520;DHT22;2272;49.226;8.108;2023-05-07T09:05:32;23.70;99.90
4520;DHT22;2272;49.226;8.108;2023-05-07T09:08:00;23.80;99.90
4520;DHT22;2272;49.226;8.108;2023-05-07T09:10:29;23.70;99.90
4520;DHT22;2272;49.226;8.108;2023-05-07T09:12:56;23.80;99.90
4520;DHT22;2272;49.226;8.108;2023-05-07T09:15:23;23.90;99.90
4520;DHT22;2272;49.226;8.108;2023-05-07T09:17:52;24.20;99.90
4520;DHT22;2272;49.226;8.108;2023-05-07T09:20:19;24.70;99.90
4520;DHT22;2272;49.226;8.108;2023-05-07T09:22:46;24.80;99.90
4520;DHT22;2272;49.226;8.108;2023-05-07T09:25:28;24.80;99.90
4520;DHT22;2272;49.226;8.108;2023-05-07T09:27:55;25.00;99.90
4520;DHT22;2272;49.226;8.108;2023-05-07T09:30:22;25.40;99.90
4520;DHT22;2272;49.226;8.108;2023-05-07T09:32:50;25.40;99.90
4520;DHT22;2272;49.226;8.108;2023-05-07T09:35:17;25.20;99.90
4520;DHT22;2272;49.226;8.108;2023-05-07T09:37:47;24.70;99.90
4520;DHT22;2272;49.226;8.108;2023-05-07T09:40:21;24.30;99.90
4520;DHT22;2272;49.226;8.108;2023-05-07T09:42:48;23.90;99.90
4520;DHT22;2272;49.226;8.108;2023-05-07T09:45:22;23.80;99.90
4520;DHT22;2272;49.226;8.108;2023-05-07T09:47:54;24.10;99.90
4520;DHT22;2272;49.226;8.108;2023-05-07T09:50:26;24.40;99.90
4520;DHT22;2272;49.226;8.108;2023-05-07T09:52:55;24.80;99.90
4520;DHT22;2272;49.226;8.108;2023-05-07T09:55:27;24.70;99.90
4520;DHT22;2272;49.226;8.108;2023-05-07T09:57:57;24.50;99.90
4520;DHT22;2272;49.226;8.108;2023-05-07T10:00:25;24.40;99.90
4520;DHT22;2272;49.226;8.108;2023-05-07T10:02:57;24.40;99.90
4520;DHT22;2272;49.226;8.108;2023-05-07T10:05:26;24.50;99.90
4520;DHT22;2272;49.226;8.108;2023-05-07T10:07:54;24.70;99.90
4520;DHT22;2272;49.226;8.108;2023-05-07T10:10:24;25.00;99.90
4520;DHT22;2272;49.226;8.108;2023-05-07T10:12:51;25.00;99.90
4520;DHT22;2272;49.226;8.108;2023-05-07T10:15:32;25.00;99.90
4520;DHT22;2272;49.226;8.108;2023-05-07T10:18:03;25.10;99.90
4520;DHT22;2272;49.226;8.108;2023-05-07T10:20:31;25.10;99.90
4520;DHT22;2272;49.226;8.108;2023-05-07T10:23:19;25.10;99.90
4520;DHT22;2272;49.226;8.108;2023-05-07T10:26:20;25.10;99.90
4520;DHT22;2272;49.226;8.108;2023-05-07T10:28:57;25.20;99.90
4520;DHT22;2272;49.226;8.108;2023-05-07T10:31:52;25.30;99.90
4520;DHT22;2272;49.226;8.108;2023-05-07T10:37:43;25.80;99.90
4520;DHT22;2272;49.226;8.108;2023-05-07T10:40:12;25.90;99.90
4520;DHT22;2272;49.226;8.108;2023-05-07T10:42:57;26.20;99.90
4520;DHT22;2272;49.226;8.108;2023-05-07T10:45:38;26.30;99.90
4520;DHT22;2272;49.226;8.108;2023-05-07T10:48:12;26.40;99.90
4520;DHT22;2272;49.226;8.108;2023-05-07T10:51:20;26.40;99.90
4520;DHT22;2272;49.226;8.108;2023-05-07T10:57:32;26.30;99.90
4520;DHT22;2272;49.226;8.108;2023-05-07T11:00:01;26.30;99.90
4520;DHT22;2272;49.226;8.108;2023-05-07T11:05:42;26.30;99.90
4520;DHT22;2272;49.226;8.108;2023-05-07T11:08:23;26.30;99.90
4520;DHT22;2272;49.226;8.108;2023-05-07T11:10:53;26.50;99.90
4520;DHT22;2272;49.226;8.108;2023-05-07T11:13:42;26.70;99.90
4520;DHT22;2272;49.226;8.108;2023-05-07T11:16:20;26.60;99.90
4520;DHT22;2272;49.226;8.108;2023-05-07T11:18:49;26.30;99.90
